Time;durP1;ratioP1;P1;durP2;ratioP2;P2;SDS_P1;SDS_P2;PMS_P1;PMS_P2;Temp;Humidity;BMP_temperature;BMP_pressure;BME280_temperature;BME280_humidity;BME280_pressure;Samples;Min_cycle;Max_cycle;Signal;HPM_P1;HPM_P2
2022/03/28 00:01:35;;;;;;;12.52;8.63;;;;;;;10.75;41.81;100655.78;6337554;22;20022;-89
2022/03/28 00:04:01;;;;;;;15.52;9.55;;;;;;;10.38;41.50;100573.25;6310007;22;20077;-89
2022/03/28 00:06:26;;;;;;;14.73;8.77;;;;;;;11.03;41.77;100690.88;6337648;22;19987;-89
2022/03/28 00:08:52;;;;;;;16.05;11.77;;;;;;;11.08;41.81;100690.41;6310096;22;20030;-88
2022/03/28 00:11:18;;;;;;;16.52;10.45;;;;;;;11.15;41.42;100688.84;6337654;22;20071;-89
2022/03/28 00:13:45;;;;;;;16.13;10.52;;;;;;;11.16;41.60;100693.16;6337614;22;20069;-89
2022/03/28 00:16:11;;;;;;;17.33;9.57;;;;;;;10.94;41.91;100662.72;6337187;22;19995;-89
2022/03/28 00:18:36;;;;;;;17.52;9.60;;;;;;;11.04;41.50;100676.69;6337564;22;20009;-89
2022/03/28 00:21:02;;;;;;;12.15;9.05;;;;;;;10.47;41.57;100562.63;6337626;22;19991;-89
2022/03/28 00:23:27;;;;;;;15.25;10.27;;;;;;;10.90;42.42;100644.69;6337700;22;19994;-89
2022/03/28 00:25:53;;;;;;;14.98;10.23;;;;;;;11.22;42.26;100689.06;6309888;22;20003;-89
2022/03/28 00:28:19;;;;;;;13.60;10.23;;;;;;;9.84;42.74;100482.69;6309870;22;19991;-89
2022/03/28 00:30:45;;;;;;;14.73;10.27;;;;;;;11.24;42.43;100673.88;6337517;22;20383;-89
2022/03/28 00:33:11;;;;;;;17.98;12.50;;;;;;;11.26;42.98;100691.25;6337523;22;19999;-89
2022/03/28 00:35:36;;;;;;;18.63;11.77;;;;;;;10.53;42.67;100560.38;6309620;22;20345;-89
2022/03/28 00:38:03;;;;;;;14.32;10.52;;;;;;;11.35;42.93;100697.41;6337152;22;20006;-89
2022/03/28 00:40:31;;;;;;;20.67;11.98;;;;;;;11.36;43.39;100691.97;6309786;22;20021;-89
2022/03/28 00:43:06;;;;;;;19.13;12.10;;;;;;;11.06;42.99;100661.50;6337507;22;20002;-89
2022/03/28 00:45:33;;;;;;;20.23;12.60;;;;;;;10.22;43.32;100533.50;6309847;22;20077;-89
2022/03/28 00:48:00;;;;;;;17.52;11.30;;;;;;;10.56;43.56;100578.53;6309779;22;19990;-89
2022/03/28 00:50:28;;;;;;;18.73;12.25;;;;;;;9.69;43.83;100484.16;6310184;22;20352;-89
2022/03/28 00:52:54;;;;;;;19.95;12.25;;;;;;;10.44;44.21;100577.94;6310630;22;20026;-89
2022/03/28 00:55:19;;;;;;;18.73;12.82;;;;;;;10.27;44.69;100560.28;6310207;22;20002;-90
2022/03/28 00:57:45;;;;;;;17.15;12.95;;;;;;;10.99;44.46;100699.25;6337572;22;20002;-89
2022/03/28 01:00:11;;;;;;;19.55;12.63;;;;;;;10.74;44.24;100646.22;6337217;22;19995;-88
2022/03/28 01:02:37;;;;;;;17.85;11.93;;;;;;;10.32;44.93;100582.59;6336838;22;20144;-89
2022/03/28 01:05:03;;;;;;;15.60;12.27;;;;;;;9.55;44.70;100504.75;6337143;22;20573;-89
2022/03/28 01:07:29;;;;;;;19.92;13.38;;;;;;;10.09;45.13;100569.00;6337419;22;20026;-89
2022/03/28 01:09:56;;;;;;;16.10;12.05;;;;;;;10.18;45.31;100575.19;6337108;22;19995;-89
2022/03/28 01:12:30;;;;;;;19.27;12.90;;;;;;;10.82;45.42;100699.13;6309516;22;19995;-90
2022/03/28 01:14:56;;;;;;;17.27;13.10;;;;;;;10.70;45.36;100667.81;6309472;22;20074;-89
2022/03/28 01:20:06;;;;;;;20.05;13.95;;;;;;;10.64;46.60;100692.19;6337167;22;20010;-89
2022/03/28 01:22:31;;;;;;;17.88;12.52;;;;;;;10.04;46.58;100610.00;6309253;22;19999;-89
2022/03/28 01:24:59;;;;;;;17.92;12.27;;;;;;;10.12;46.65;100632.03;6337116;22;20005;-90
2022/03/28 01:27:25;;;;;;;20.55;13.63;;;;;;;10.41;46.86;100683.84;6309532;22;20002;-90
2022/03/28 01:29:50;;;;;;;17.42;12.52;;;;;;;9.94;46.94;100610.06;6309673;22;20003;-90
2022/03/28 01:32:16;;;;;;;19.10;12.63;;;;;;;10.09;47.03;100629.69;6309302;22;20002;-90
2022/03/28 01:34:41;;;;;;;18.85;12.90;;;;;;;10.28;46.63;100660.44;6309321;22;19994;-89
2022/03/28 01:37:07;;;;;;;19.15;12.82;;;;;;;10.30;47.19;100652.38;6337030;22;20003;-90
2022/03/28 01:39:32;;;;;;;18.98;12.80;;;;;;;10.15;47.02;100629.09;6336991;22;19999;-89
2022/03/28 01:41:58;;;;;;;20.42;13.45;;;;;;;10.04;46.79;100625.81;6337018;22;20066;-89
2022/03/28 01:44:24;;;;;;;22.58;13.18;;;;;;;9.78;47.14;100581.69;6336919;22;19998;-89
2022/03/28 01:46:50;;;;;;;21.55;13.35;;;;;;;10.55;47.08;100733.53;6309079;22;20389;-90
2022/03/28 01:49:18;;;;;;;22.70;13.05;;;;;;;10.53;47.46;100722.28;6336744;22;20031;-89
2022/03/28 01:51:45;;;;;;;24.88;13.50;;;;;;;10.41;47.52;100712.91;6336871;22;20001;-89
2022/03/28 01:54:11;;;;;;;20.60;12.63;;;;;;;10.15;47.45;100671.31;6337264;22;19998;-90
2022/03/28 01:56:37;;;;;;;22.38;13.77;;;;;;;10.16;48.03;100672.97;6336872;22;20447;-89
2022/03/28 01:59:04;;;;;;;20.75;13.80;;;;;;;9.49;47.93;100584.44;6336978;22;19999;-90
2022/03/28 02:01:30;;;;;;;22.92;14.30;;;;;;;9.66;47.98;100603.09;6336500;22;20018;-89
2022/03/28 02:03:55;;;;;;;19.45;13.80;;;;;;;10.41;48.22;100723.47;6337315;22;19999;-89
2022/03/28 02:06:20;;;;;;;22.80;14.63;;;;;;;9.59;48.18;100591.47;6336412;22;20348;-90
2022/03/28 02:08:46;;;;;;;21.83;13.63;;;;;;;10.03;48.77;100671.66;6310540;22;20368;-90
2022/03/28 02:11:11;;;;;;;21.02;14.10;;;;;;;9.91;48.40;100657.84;6348254;22;20017;-90
2022/03/28 02:13:37;;;;;;;21.95;13.63;;;;;;;10.30;48.37;100748.22;6363533;22;19979;-89
2022/03/28 02:16:03;;;;;;;22.02;12.98;;;;;;;9.66;48.78;100643.50;6362789;22;19995;-89
2022/03/28 02:18:29;;;;;;;21.52;13.18;;;;;;;10.17;48.66;100719.50;6319812;22;20077;-89
2022/03/28 02:20:54;;;;;;;21.95;12.60;;;;;;;9.98;48.02;100726.66;6309514;22;20037;-90
2022/03/28 02:23:20;;;;;;;20.63;13.93;;;;;;;9.51;48.24;100645.75;6337077;22;20030;-90
2022/03/28 02:25:45;;;;;;;24.80;14.02;;;;;;;10.01;48.21;100769.44;6309593;22;20009;-90
2022/03/28 02:28:11;;;;;;;18.27;12.40;;;;;;;9.56;47.89;100663.78;6337057;22;20356;-90
2022/03/28 02:30:37;;;;;;;20.65;13.60;;;;;;;9.95;47.84;100732.25;6309712;22;20003;-90
2022/03/28 02:33:03;;;;;;;22.33;13.70;;;;;;;9.20;47.69;100625.88;6309588;22;20005;-90
2022/03/28 02:35:29;;;;;;;19.23;13.10;;;;;;;8.98;47.62;100600.69;6309498;22;20066;-90
2022/03/28 02:37:54;;;;;;;18.55;12.55;;;;;;;9.70;47.92;100728.44;6308929;22;20056;-90
2022/03/28 02:40:20;;;;;;;19.45;14.30;;;;;;;9.58;47.84;100709.28;6336579;22;20029;-89
2022/03/28 02:42:45;;;;;;;21.63;14.13;;;;;;;9.37;47.98;100703.38;6336978;22;20006;-90
2022/03/28 02:45:11;;;;;;;20.60;13.57;;;;;;;8.83;47.79;100608.19;6346711;22;19999;-90
2022/03/28 02:47:37;;;;;;;17.55;13.05;;;;;;;9.22;48.18;100692.44;6335522;22;19995;-90
2022/03/28 02:50:03;;;;;;;19.73;13.60;;;;;;;9.57;48.21;100747.19;6357996;22;20051;-90
2022/03/28 02:52:29;;;;;;;20.55;13.63;;;;;;;9.53;47.99;100751.06;6336733;22;19999;-89
2022/03/28 02:54:55;;;;;;;21.98;13.73;;;;;;;9.44;48.71;100751.91;6337254;22;19995;-90
2022/03/28 02:57:21;;;;;;;17.60;12.88;;;;;;;8.42;48.46;100595.31;6337150;22;20333;-89
2022/03/28 02:59:46;;;;;;;19.00;13.38;;;;;;;9.12;48.31;100697.72;6309322;22;20067;-90
2022/03/28 03:02:12;;;;;;;21.38;12.57;;;;;;;9.43;48.49;100750.25;6308691;22;20118;-89
2022/03/28 03:04:38;;;;;;;19.27;12.95;;;;;;;7.92;48.78;100564.63;6308835;22;20074;-90
2022/03/28 03:07:04;;;;;;;21.13;13.55;;;;;;;8.86;48.90;100699.25;6308690;22;20025;-90
2022/03/28 03:09:29;;;;;;;21.17;14.20;;;;;;;9.18;49.03;100738.50;6308673;22;19999;-90
2022/03/28 03:11:55;;;;;;;21.85;13.77;;;;;;;9.23;49.14;100752.09;6308783;22;20432;-90
2022/03/28 03:14:21;;;;;;;20.77;13.57;;;;;;;8.92;49.07;100714.53;6336367;22;19994;-90
2022/03/28 03:16:47;;;;;;;20.48;14.00;;;;;;;8.55;49.51;100672.22;6336542;22;20007;-90
2022/03/28 03:19:12;;;;;;;22.60;14.68;;;;;;;8.03;49.03;100591.75;6310442;22;19999;-90
2022/03/28 03:21:38;;;;;;;21.35;14.52;;;;;;;8.78;49.25;100710.47;6338433;22;20029;-90
2022/03/28 03:24:05;;;;;;;20.67;14.02;;;;;;;8.18;49.42;100643.88;6310690;22;20002;-89
2022/03/28 03:26:31;;;;;;;20.70;15.07;;;;;;;8.97;49.33;100751.81;6310499;22;20021;-90
2022/03/28 03:28:58;;;;;;;23.48;14.15;;;;;;;8.86;49.27;100752.75;6310369;22;20010;-90
2022/03/28 03:31:26;;;;;;;20.80;14.15;;;;;;;8.04;49.50;100625.81;6310380;22;19999;-90
2022/03/28 03:33:52;;;;;;;18.55;13.18;;;;;;;8.56;49.59;100706.28;6337905;22;19998;-90
2022/03/28 03:36:17;;;;;;;22.13;13.65;;;;;;;8.55;49.71;100690.63;6337623;22;19999;-90
2022/03/28 03:38:43;;;;;;;21.17;13.60;;;;;;;8.17;50.08;100650.06;6310437;22;20447;-89
2022/03/28 03:41:08;;;;;;;24.92;14.98;;;;;;;8.76;49.59;100741.38;6338241;22;20450;-90
2022/03/28 03:43:34;;;;;;;26.27;15.70;;;;;;;8.88;50.00;100769.25;6310650;22;20060;-90
2022/03/28 03:45:59;;;;;;;27.55;18.30;;;;;;;8.40;49.74;100710.41;6310636;22;20387;-91
2022/03/28 03:48:26;;;;;;;25.25;16.55;;;;;;;8.31;49.91;100706.78;6311124;22;20343;-90
2022/03/28 03:50:53;;;;;;;24.33;17.75;;;;;;;8.39;49.76;100719.28;6310989;22;20444;-90
2022/03/28 03:53:19;;;;;;;27.08;17.52;;;;;;;8.43;50.02;100734.66;6310299;22;20065;-90
2022/03/28 03:55:45;;;;;;;23.20;16.77;;;;;;;7.84;50.24;100647.78;6338132;22;20005;-91
2022/03/28 03:58:11;;;;;;;22.63;16.25;;;;;;;8.20;50.63;100726.13;6338539;22;20333;-90
2022/03/28 04:00:37;;;;;;;24.17;15.57;;;;;;;7.75;50.50;100651.19;6310555;22;20066;-90
2022/03/28 04:03:03;;;;;;;26.25;16.33;;;;;;;7.80;50.92;100678.75;6310177;22;20490;-90
2022/03/28 04:05:29;;;;;;;29.40;18.67;;;;;;;8.46;51.15;100794.09;6338195;22;20018;-91
2022/03/28 04:07:54;;;;;;;31.73;19.17;;;;;;;7.58;51.21;100642.16;6310908;22;19991;-90
2022/03/28 04:10:22;;;;;;;25.90;17.05;;;;;;;8.44;50.92;100794.22;6310551;22;20003;-91
2022/03/28 04:12:47;;;;;;;24.33;15.57;;;;;;;8.25;50.32;100750.25;6310472;22;20440;-90
2022/03/28 04:15:12;;;;;;;26.40;16.52;;;;;;;8.44;50.86;100786.34;6310305;22;20005;-91
2022/03/28 04:17:42;;;;;;;27.00;16.40;;;;;;;8.19;51.11;100769.19;6337624;22;20060;-90
2022/03/28 04:20:13;;;;;;;29.67;19.33;;;;;;;8.43;51.12;100789.09;6338541;22;19998;-90
2022/03/28 04:22:40;;;;;;;26.50;17.02;;;;;;;7.74;51.04;100676.66;6310737;22;20436;-90
2022/03/28 04:25:08;;;;;;;23.73;17.77;;;;;;;8.35;51.08;100787.13;6310151;22;20479;-91
2022/03/28 04:27:35;;;;;;;24.27;16.58;;;;;;;8.37;51.49;100794.91;6309922;22;20010;-90
2022/03/28 04:30:05;;;;;;;26.35;16.00;;;;;;;7.73;51.39;100690.75;6337385;22;20436;-90
2022/03/28 04:32:30;;;;;;;30.70;19.23;;;;;;;7.94;51.20;100727.53;6309982;22;20056;-90
2022/03/28 04:34:56;;;;;;;32.05;22.63;;;;;;;7.71;51.15;100697.13;6337623;22;20003;-91
2022/03/28 04:37:21;;;;;;;32.25;20.48;;;;;;;8.38;51.20;100804.47;6337693;22;20030;-90
2022/03/28 04:39:47;;;;;;;38.33;24.55;;;;;;;7.64;50.88;100675.78;6337990;22;20398;-90
2022/03/28 04:42:12;;;;;;;42.88;27.00;;;;;;;7.83;51.23;100702.16;6337979;22;20022;-90
2022/03/28 04:44:38;;;;;;;48.78;31.73;;;;;;;6.84;51.90;100581.88;6310299;22;20329;-91
2022/03/28 04:47:03;;;;;;;37.42;24.88;;;;;;;7.67;51.61;100685.19;6310656;22;20539;-90
2022/03/28 04:49:29;;;;;;;38.80;26.05;;;;;;;8.10;51.57;100788.38;6310428;22;20003;-90
2022/03/28 04:51:54;;;;;;;46.47;28.10;;;;;;;8.04;51.07;100754.69;6310394;22;20052;-90
2022/03/28 04:54:20;;;;;;;33.55;23.83;;;;;;;8.02;51.36;100714.53;6338098;22;19998;-90
2022/03/28 04:56:45;;;;;;;39.20;23.20;;;;;;;8.49;51.22;100835.94;6338088;22;20034;-90
2022/03/28 04:59:11;;;;;;;31.63;19.65;;;;;;;8.06;51.64;100741.41;6310241;22;20078;-90
2022/03/28 05:01:36;;;;;;;31.38;18.15;;;;;;;7.94;51.71;100746.75;6310442;22;20464;-90
2022/03/28 05:04:02;;;;;;;35.25;20.73;;;;;;;7.82;51.15;100736.47;6310073;22;20006;-89
2022/03/28 05:06:28;;;;;;;33.20;19.90;;;;;;;8.33;51.46;100783.81;6337826;22;20044;-90
2022/03/28 05:08:53;;;;;;;29.63;18.50;;;;;;;8.08;51.24;100718.44;6337810;22;20048;-90
2022/03/28 05:11:22;;;;;;;34.38;19.77;;;;;;;8.09;50.82;100718.31;6338048;22;20090;-90
2022/03/28 05:13:49;;;;;;;27.80;20.33;;;;;;;7.05;51.23;100560.84;6338027;22;19994;-90
2022/03/28 05:16:15;;;;;;;30.23;19.73;;;;;;;8.06;51.10;100729.09;6310065;22;20034;-90
2022/03/28 05:18:41;;;;;;;34.10;20.27;;;;;;;8.14;51.22;100720.53;6310619;22;19999;-90
2022/03/28 05:21:06;;;;;;;28.92;18.15;;;;;;;8.15;51.19;100727.47;6310413;22;20002;-90
2022/03/28 05:23:32;;;;;;;32.88;19.92;;;;;;;8.05;51.75;100713.44;6310281;22;20123;-90
2022/03/28 05:25:58;;;;;;;30.33;19.20;;;;;;;8.21;51.32;100745.38;6310796;22;20021;-90
2022/03/28 05:28:23;;;;;;;29.45;19.58;;;;;;;8.84;51.25;100831.06;6310141;22;19998;-89
2022/03/28 05:30:49;;;;;;;28.45;20.33;;;;;;;8.94;51.42;100846.91;6310503;22;19995;-90
2022/03/28 05:33:14;;;;;;;36.40;19.92;;;;;;;8.51;51.72;100799.78;6309643;22;20451;-90
2022/03/28 05:35:43;;;;;;;26.50;17.27;;;;;;;8.90;52.01;100848.94;6337178;22;20508;-90
2022/03/28 05:38:09;;;;;;;26.55;18.08;;;;;;;8.41;52.06;100759.44;6308828;22;20452;-89
2022/03/28 05:40:34;;;;;;;33.63;21.05;;;;;;;8.42;52.27;100769.00;6308923;22;20003;-90
2022/03/28 05:43:00;;;;;;;26.98;19.25;;;;;;;8.83;51.94;100813.59;6308887;22;20462;-89
2022/03/28 05:45:25;;;;;;;26.17;18.75;;;;;;;8.61;52.17;100766.44;6309072;22;19995;-89
2022/03/28 05:47:51;;;;;;;32.03;19.48;;;;;;;8.82;52.50;100813.72;6309261;22;19995;-90
2022/03/28 05:50:16;;;;;;;31.05;18.52;;;;;;;8.52;52.62;100738.28;6309259;22;20033;-90
2022/03/28 05:52:42;;;;;;;26.50;18.92;;;;;;;8.96;52.71;100802.00;6309013;22;20038;-89
2022/03/28 05:55:08;;;;;;;30.77;20.13;;;;;;;9.27;52.42;100840.44;6336356;22;19995;-89
2022/03/28 05:57:33;;;;;;;31.10;19.20;;;;;;;8.53;52.68;100734.69;6308674;22;20032;-89
2022/03/28 05:59:59;;;;;;;30.00;17.25;;;;;;;8.83;51.96;100742.47;6308409;22;20053;-89
2022/03/28 06:02:24;;;;;;;30.48;15.43;;;;;;;9.26;51.31;100788.69;6335564;22;20414;-90
2022/03/28 06:04:50;;;;;;;24.70;14.75;;;;;;;9.75;50.90;100848.34;6336542;22;20002;-89
2022/03/28 06:07:16;;;;;;;24.23;12.75;;;;;;;9.15;50.35;100744.03;6336440;22;19991;-89
2022/03/28 06:09:42;;;;;;;25.35;12.75;;;;;;;9.12;50.05;100707.44;6336412;22;20002;-89
2022/03/28 06:12:08;;;;;;;24.98;13.63;;;;;;;9.23;49.78;100729.19;6308625;22;20018;-89
2022/03/28 06:14:33;;;;;;;25.65;12.60;;;;;;;9.06;49.45;100665.84;6308235;22;20006;-88
2022/03/28 06:16:58;;;;;;;24.95;13.70;;;;;;;9.73;49.08;100755.34;6308728;22;20010;-89
2022/03/28 06:19:24;;;;;;;19.23;11.38;;;;;;;9.81;48.76;100770.47;6308908;22;19999;-89
2022/03/28 06:21:49;;;;;;;18.58;12.75;;;;;;;10.38;48.51;100858.38;6308935;22;20006;-90
2022/03/28 06:24:15;;;;;;;24.63;11.45;;;;;;;9.76;47.98;100747.16;6336215;22;20326;-89
2022/03/28 06:26:40;;;;;;;20.35;11.57;;;;;;;10.10;48.35;100783.56;6335913;22;20048;-90
2022/03/28 06:29:06;;;;;;;21.15;12.43;;;;;;;10.24;48.20;100812.16;6336454;22;20002;-89
2022/03/28 06:31:31;;;;;;;23.88;12.18;;;;;;;10.59;47.84;100853.72;6336365;22;20070;-90
2022/03/28 06:34:01;;;;;;;22.20;11.05;;;;;;;9.79;47.63;100746.03;6336371;22;19995;-89
2022/03/28 06:36:31;;;;;;;25.08;12.68;;;;;;;10.01;47.53;100755.41;6336248;22;20029;-90
2022/03/28 06:38:57;;;;;;;17.38;11.32;;;;;;;10.22;47.37;100781.59;6308652;22;20002;-89
2022/03/28 06:41:22;;;;;;;17.85;10.48;;;;;;;10.17;47.78;100774.91;6308398;22;20103;-90
2022/03/28 06:43:48;;;;;;;22.02;10.98;;;;;;;10.36;47.81;100789.03;6336210;22;20490;-89
2022/03/28 06:46:14;;;;;;;22.30;11.48;;;;;;;10.31;47.57;100781.56;6336479;22;19999;-90
2022/03/28 06:48:40;;;;;;;17.33;10.80;;;;;;;10.70;47.04;100844.78;6308585;22;20356;-90
2022/03/28 06:51:06;;;;;;;17.45;10.98;;;;;;;10.77;47.23;100832.63;6336302;22;20005;-89
2022/03/28 06:53:32;;;;;;;16.95;9.77;;;;;;;10.50;46.82;100792.06;6338702;22;19995;-90
2022/03/28 06:55:58;;;;;;;16.33;10.30;;;;;;;10.61;47.26;100825.34;6349794;22;19995;-88
2022/03/28 06:58:24;;;;;;;17.30;10.18;;;;;;;11.00;47.35;100855.03;6351306;22;20333;-89
2022/03/28 07:00:50;;;;;;;17.52;9.50;;;;;;;11.05;46.81;100862.50;6316378;22;19994;-89
2022/03/28 07:03:15;;;;;;;18.80;10.48;;;;;;;10.73;47.05;100799.56;6312928;22;19995;-89
2022/03/28 07:05:40;;;;;;;23.27;11.10;;;;;;;10.37;46.83;100717.63;6314507;22;20009;-91
2022/03/28 07:08:07;;;;;;;20.70;10.18;;;;;;;10.76;46.60;100765.75;6313268;22;20469;-90
2022/03/28 07:10:33;;;;;;;19.00;10.35;;;;;;;10.77;46.30;100764.78;6311206;22;20127;-90
2022/03/28 07:12:59;;;;;;;19.55;9.65;;;;;;;10.96;46.35;100784.13;6310661;22;19995;-90
2022/03/28 07:15:26;;;;;;;20.75;10.85;;;;;;;11.07;46.24;100779.44;6310570;22;20055;-91
2022/03/28 07:17:56;;;;;;;18.45;10.30;;;;;;;10.78;46.15;100715.44;6310621;22;20406;-90
2022/03/28 07:20:31;;;;;;;22.30;9.93;;;;;;;11.21;46.53;100775.47;6310574;22;19994;-90
2022/03/28 07:22:58;;;;;;;16.52;9.93;;;;;;;11.06;46.18;100738.13;6338434;22;20056;-89
2022/03/28 07:25:26;;;;;;;21.80;10.50;;;;;;;11.65;46.16;100852.19;6338621;22;19994;-89
2022/03/28 07:27:52;;;;;;;16.63;9.75;;;;;;;10.79;46.07;100691.50;6337903;22;20312;-90
2022/03/28 07:30:19;;;;;;;15.45;10.48;;;;;;;11.85;46.09;100851.06;6310709;22;19998;-90
2022/03/28 07:32:46;;;;;;;22.80;11.05;;;;;;;11.89;45.46;100841.88;6310784;22;20009;-90
2022/03/28 07:35:14;;;;;;;17.42;9.75;;;;;;;10.28;45.29;100568.03;6310946;22;20455;-90
2022/03/28 07:37:41;;;;;;;18.75;10.23;;;;;;;12.07;45.39;100839.16;6310563;22;20060;-89
2022/03/28 07:40:08;;;;;;;20.15;9.65;;;;;;;11.42;45.16;100706.38;6337690;22;20077;-89
2022/03/28 07:42:35;;;;;;;15.07;9.02;;;;;;;10.75;45.11;100592.41;6337669;22;20135;-88
2022/03/28 07:45:02;;;;;;;19.02;9.93;;;;;;;11.68;45.26;100746.91;6309697;22;19998;-88
2022/03/28 07:47:28;;;;;;;19.63;10.80;;;;;;;11.59;45.50;100720.56;6310162;22;20070;-87
2022/03/28 07:49:54;;;;;;;23.27;9.93;;;;;;;12.33;45.63;100836.50;6337401;22;20074;-87
2022/03/28 07:52:20;;;;;;;17.50;9.63;;;;;;;12.19;45.06;100790.25;6337824;22;20452;-87
2022/03/28 07:54:47;;;;;;;11.88;8.82;;;;;;;12.15;45.11;100756.31;6310484;22;19995;-87
2022/03/28 07:57:14;;;;;;;15.63;9.55;;;;;;;12.25;44.88;100768.44;6337868;22;20428;-88
2022/03/28 07:59:46;;;;;;;16.98;9.18;;;;;;;12.74;44.57;100829.59;6337611;22;20002;-88
2022/03/28 08:02:11;;;;;;;15.38;8.57;;;;;;;12.24;44.91;100727.06;6310025;22;20075;-87
2022/03/28 08:04:37;;;;;;;16.30;10.05;;;;;;;12.90;44.77;100826.16;6336883;22;20034;-88
2022/03/28 08:07:08;;;;;;;18.35;9.25;;;;;;;12.77;44.79;100796.63;6337638;22;19995;-87
2022/03/28 08:09:35;;;;;;;14.05;9.52;;;;;;;13.00;44.48;100835.63;6336819;22;20074;-87
2022/03/28 08:12:00;;;;;;;16.42;9.77;;;;;;;12.45;44.29;100721.34;6337053;22;20451;-87
2022/03/28 08:14:26;;;;;;;12.73;9.32;;;;;;;12.94;44.40;100787.72;6309540;22;19999;-87
2022/03/28 08:16:52;;;;;;;17.17;11.75;;;;;;;13.03;44.36;100800.00;6309645;22;19999;-88
2022/03/28 08:19:17;;;;;;;14.40;10.20;;;;;;;12.99;43.92;100756.25;6308968;22;19998;-87
2022/03/28 08:21:43;;;;;;;21.45;12.52;;;;;;;12.89;44.14;100732.53;6337277;22;19999;-87
2022/03/28 08:24:08;;;;;;;14.07;9.68;;;;;;;13.19;44.04;100767.41;6309906;22;19994;-87
2022/03/28 08:26:34;;;;;;;15.85;9.93;;;;;;;12.91;43.55;100712.00;6309744;22;20022;-87
2022/03/28 08:28:59;;;;;;;15.77;10.60;;;;;;;13.38;43.77;100776.84;6337030;22;19999;-86
2022/03/28 08:31:25;;;;;;;21.35;10.20;;;;;;;13.28;43.59;100731.94;6337402;22;20129;-86
2022/03/28 08:33:50;;;;;;;14.68;9.63;;;;;;;13.47;43.75;100758.16;6337462;22;20022;-86
2022/03/28 08:36:16;;;;;;;16.35;10.55;;;;;;;13.10;43.28;100681.69;6337637;22;20352;-88
2022/03/28 08:38:41;;;;;;;16.33;10.15;;;;;;;13.81;43.47;100765.88;6337600;22;20120;-88
2022/03/28 08:41:12;;;;;;;14.18;10.90;;;;;;;13.61;43.16;100699.09;6337467;22;20045;-88
2022/03/28 08:43:38;;;;;;;15.35;9.70;;;;;;;13.52;43.04;100675.38;6337510;22;19999;-87
2022/03/28 08:46:08;;;;;;;14.05;10.93;;;;;;;14.19;42.78;100755.53;6337129;22;20463;-87
2022/03/28 08:48:33;;;;;;;12.50;8.60;;;;;;;13.89;42.52;100696.84;6337192;22;19995;-86
2022/03/28 08:50:59;;;;;;;15.30;10.23;;;;;;;14.03;42.63;100683.84;6336926;22;20365;-85
2022/03/28 08:53:24;;;;;;;15.10;10.18;;;;;;;14.02;42.35;100639.69;6336968;22;19999;-86
2022/03/28 08:55:50;;;;;;;19.17;10.45;;;;;;;14.75;41.80;100719.88;6309737;22;20003;-88
2022/03/28 08:58:15;;;;;;;14.00;9.70;;;;;;;14.85;41.39;100695.72;6308820;22;20087;-87
2022/03/28 09:00:42;;;;;;;16.58;12.10;;;;;;;15.24;40.96;100746.97;6309328;22;20131;-87
2022/03/28 09:03:07;;;;;;;13.82;10.68;;;;;;;15.19;40.64;100696.13;6308206;22;20045;-85
2022/03/28 09:05:35;;;;;;;16.65;9.73;;;;;;;15.81;40.32;100737.66;6308473;22;20037;-87
2022/03/28 09:08:02;;;;;;;14.50;10.32;;;;;;;15.41;39.69;100653.69;6308182;22;19994;-87
2022/03/28 09:10:32;;;;;;;16.85;10.02;;;;;;;16.17;39.43;100735.09;6336747;22;20458;-86
2022/03/28 09:12:59;;;;;;;14.60;9.57;;;;;;;16.35;39.10;100729.38;6337057;22;19991;-87
2022/03/28 09:15:25;;;;;;;17.27;10.63;;;;;;;15.05;38.77;100529.34;6309131;22;20018;-88
2022/03/28 09:17:57;;;;;;;14.15;9.02;;;;;;;16.35;38.63;100700.91;6336915;22;20006;-86
2022/03/28 09:20:24;;;;;;;13.48;9.52;;;;;;;16.50;38.36;100690.19;6337128;22;20002;-87
2022/03/28 09:22:49;;;;;;;16.83;9.70;;;;;;;16.13;37.84;100571.28;6337045;22;20022;-85
2022/03/28 09:25:17;;;;;;;16.85;9.88;;;;;;;17.18;37.47;100709.38;6309458;22;20444;-87
2022/03/28 09:27:44;;;;;;;11.30;8.73;;;;;;;17.02;37.37;100647.22;6336205;22;20022;-86
2022/03/28 09:30:18;;;;;;;21.75;10.90;;;;;;;17.26;36.87;100642.50;6308859;22;19999;-87
2022/03/28 09:32:48;;;;;;;15.75;8.80;;;;;;;17.81;36.52;100696.91;6309709;22;19999;-87
2022/03/28 09:35:20;;;;;;;10.45;8.98;;;;;;;17.68;36.41;100666.44;6336882;22;20005;-85
2022/03/28 09:37:49;;;;;;;13.82;9.40;;;;;;;18.03;36.13;100687.81;6309285;22;19999;-86
2022/03/28 09:40:24;;;;;;;14.50;8.90;;;;;;;18.05;35.78;100657.19;6336790;22;20443;-86
2022/03/28 09:42:51;;;;;;;12.65;9.05;;;;;;;18.02;35.92;100627.38;6308567;22;20352;-86
2022/03/28 09:45:29;;;;;;;14.05;8.73;;;;;;;18.61;35.48;100680.22;6336572;22;19998;-87
2022/03/28 09:47:59;;;;;;;16.13;9.90;;;;;;;18.66;34.97;100680.47;6336584;22;19991;-84
2022/03/28 09:50:40;;;;;;;15.63;9.27;;;;;;;18.84;34.65;100663.81;6334493;22;20013;-86
2022/03/28 09:53:27;;;;;;;14.85;9.30;;;;;;;18.84;34.65;100672.66;6306977;22;20337;-87
2022/03/28 09:56:04;;;;;;;15.82;9.95;;;;;;;18.43;35.04;100584.50;6334577;22;20078;-86
2022/03/28 09:58:33;;;;;;;18.35;11.43;;;;;;;19.16;34.61;100662.16;6308028;22;20003;-87
2022/03/28 10:01:00;;;;;;;16.88;12.45;;;;;;;19.21;34.38;100655.16;6336542;22;20402;-86
2022/03/28 10:03:31;;;;;;;13.40;10.95;;;;;;;19.30;34.00;100653.91;6307079;22;19995;-86
2022/03/28 10:05:59;;;;;;;20.77;9.38;;;;;;;19.32;33.92;100621.56;6335601;22;20060;-86
2022/03/28 10:08:25;;;;;;;14.98;9.23;;;;;;;19.32;33.71;100584.09;6335192;22;19991;-84
2022/03/28 10:10:51;;;;;;;13.50;9.30;;;;;;;19.32;33.44;100559.97;6308436;22;20073;-84
2022/03/28 10:13:18;;;;;;;14.38;10.40;;;;;;;19.12;33.48;100505.66;6307679;22;20401;-87
2022/03/28 10:15:43;;;;;;;13.75;8.82;;;;;;;18.96;33.60;100513.13;6307287;22;20451;-87
2022/03/28 10:18:09;;;;;;;18.15;11.02;;;;;;;19.44;33.88;100585.13;6306968;22;20049;-86
2022/03/28 10:20:36;;;;;;;20.58;13.48;;;;;;;19.09;33.72;100532.84;6335466;22;20402;-86
2022/03/28 10:23:03;;;;;;;17.52;13.02;;;;;;;19.20;34.00;100564.34;6336116;22;20018;-87
2022/03/28 10:25:29;;;;;;;13.32;10.35;;;;;;;18.54;33.92;100465.38;6308061;22;19995;-86
2022/03/28 10:27:55;;;;;;;14.18;10.23;;;;;;;19.07;33.93;100559.00;6310264;22;20450;-83
2022/03/28 10:30:27;;;;;;;12.93;9.82;;;;;;;19.24;33.99;100579.78;6334294;22;19995;-83
2022/03/28 10:33:08;;;;;;;15.02;9.05;;;;;;;19.27;34.12;100571.31;6336048;22;19995;-84
2022/03/28 10:35:33;;;;;;;16.52;9.82;;;;;;;18.58;34.14;100453.25;6337324;22;20013;-84
2022/03/28 10:38:16;;;;;;;12.23;8.73;;;;;;;19.17;34.23;100529.97;6309254;22;20003;-84
2022/03/28 10:41:03;;;;;;;12.95;9.90;;;;;;;19.55;34.00;100562.25;6336815;22;20005;-84
2022/03/28 10:43:32;;;;;;;16.50;9.63;;;;;;;19.65;33.84;100555.41;6309925;22;20031;-83
2022/03/28 10:46:03;;;;;;;14.40;9.77;;;;;;;19.73;33.66;100548.97;6311190;22;20440;-83
2022/03/28 10:48:52;;;;;;;14.73;9.18;;;;;;;19.75;33.62;100551.44;6309852;22;20048;-83
2022/03/28 10:51:29;;;;;;;19.77;11.48;;;;;;;19.65;33.70;100520.56;6339148;22;20029;-84
2022/03/28 10:53:58;;;;;;;16.17;11.20;;;;;;;19.90;33.42;100539.41;6310352;22;19995;-83
2022/03/28 10:56:59;;;;;;;15.35;9.70;;;;;;;19.32;33.14;100456.41;6355550;22;20058;-83
2022/03/28 10:59:25;;;;;;;16.98;11.32;;;;;;;19.70;33.22;100473.56;6355916;22;20002;-85
2022/03/28 11:01:53;;;;;;;15.80;9.52;;;;;;;19.68;32.95;100461.19;6326703;22;20105;-84
2022/03/28 11:04:24;;;;;;;17.02;11.70;;;;;;;20.13;32.92;100520.13;6310261;22;19998;-83
2022/03/28 11:07:04;;;;;;;14.98;11.55;;;;;;;20.01;32.90;100519.13;6310260;22;19995;-83
2022/03/28 11:10:06;;;;;;;14.50;9.93;;;;;;;19.92;33.06;100509.69;6336675;22;19998;-85
2022/03/28 11:12:40;;;;;;;12.30;9.48;;;;;;;19.64;33.08;100480.59;6336213;22;20024;-83
2022/03/28 11:15:11;;;;;;;15.13;10.27;;;;;;;19.81;33.39;100503.16;6336366;22;20061;-84
2022/03/28 11:17:38;;;;;;;17.83;10.63;;;;;;;19.78;33.37;100498.25;6307818;22;20011;-83